createdAt,value
2022-10-01T00:00:56.596Z,99901.80
2022-10-01T00:05:10.978Z,99899.61
2022-10-01T00:09:13.073Z,99902.91
2022-10-01T00:13:15.172Z,99911.66
2022-10-01T00:17:17.413Z,99922.08
2022-10-01T00:21:26.585Z,99922.41
2022-10-01T00:25:28.663Z,99915.50
2022-10-01T00:29:31.486Z,99915.57
2022-10-01T00:33:34.163Z,99920.64
2022-10-01T00:37:37.367Z,99922.06
2022-10-01T00:41:40.305Z,99924.88
2022-10-01T00:45:42.419Z,99931.21
2022-10-01T00:49:46.878Z,99926.32
2022-10-01T00:53:48.953Z,99915.66
2022-10-01T00:57:51.998Z,99908.96
2022-10-01T01:01:54.433Z,99909.27
2022-10-01T01:05:56.945Z,99899.88
2022-10-01T01:10:00.453Z,99899.05
2022-10-01T01:14:22.571Z,99902.86
2022-10-01T01:18:40.807Z,99913.15
2022-10-01T01:22:54.342Z,99915.85
2022-10-01T01:27:05.929Z,99908.52
2022-10-01T01:31:14.045Z,99912.81
2022-10-01T01:35:40.563Z,99910.05
2022-10-01T01:39:49.854Z,99913.91
2022-10-01T01:43:56.086Z,99909.58
2022-10-01T01:48:01.809Z,99907.17
2022-10-01T01:52:13.042Z,99905.05
2022-10-01T01:56:16.861Z,99911.27
2022-10-01T02:00:19.062Z,99914.22
2022-10-01T02:04:39.536Z,99911.71
2022-10-01T02:08:51.754Z,99912.62
2022-10-01T02:13:03.545Z,99907.92
2022-10-01T02:17:37.003Z,99905.80
2022-10-01T02:22:01.014Z,99901.00
2022-10-01T02:26:16.220Z,99902.77
2022-10-01T02:30:18.763Z,99900.89
2022-10-01T02:34:27.929Z,99891.84
2022-10-01T02:38:31.537Z,99891.13
2022-10-01T02:42:36.600Z,99890.57
2022-10-01T02:47:07.268Z,99886.53
2022-10-01T02:51:28.531Z,99877.95
2022-10-01T02:55:41.774Z,99883.35
2022-10-01T02:59:44.326Z,99884.23
2022-10-01T03:03:46.619Z,99889.58
2022-10-01T03:07:48.802Z,99888.20
2022-10-01T03:11:50.881Z,99892.08
2022-10-01T03:15:52.984Z,99897.15
2022-10-01T03:19:55.332Z,99898.61
2022-10-01T03:23:57.511Z,99896.91
2022-10-01T03:27:59.646Z,99899.50
2022-10-01T03:32:01.908Z,99898.92
2022-10-01T03:36:05.034Z,99897.94
2022-10-01T03:40:07.917Z,99899.04
2022-10-01T03:44:10.157Z,99902.88
2022-10-01T03:48:12.236Z,99909.92
2022-10-01T03:52:14.243Z,99910.60
2022-10-01T03:56:18.035Z,99906.18
2022-10-01T04:00:20.506Z,99901.50
2022-10-01T04:04:22.619Z,99888.83
2022-10-01T04:08:25.007Z,99896.18
2022-10-01T04:12:27.596Z,99895.13
2022-10-01T04:16:29.711Z,99893.94
2022-10-01T04:20:33.555Z,99897.67
2022-10-01T04:24:35.596Z,99897.05
2022-10-01T04:28:37.717Z,99891.50
2022-10-01T04:32:39.778Z,99882.79
2022-10-01T04:36:42.379Z,99869.11
2022-10-01T04:40:44.503Z,99866.35
2022-10-01T04:44:47.085Z,99861.48
2022-10-01T04:48:49.218Z,99854.81
2022-10-01T04:52:52.270Z,99863.35
2022-10-01T04:56:54.303Z,99873.27
2022-10-01T05:01:01.052Z,99875.05
2022-10-01T05:05:06.483Z,99889.87
2022-10-01T05:09:08.534Z,99895.34
2022-10-01T05:13:11.608Z,99894.80
2022-10-01T05:17:18.058Z,99894.37
2022-10-01T05:21:20.480Z,99892.91
2022-10-01T05:25:23.117Z,99897.96
2022-10-01T05:29:25.258Z,99899.14
2022-10-01T05:33:29.213Z,99894.66
2022-10-01T05:37:31.610Z,99887.20
2022-10-01T05:41:34.051Z,99896.30
2022-10-01T05:45:36.415Z,99898.27
2022-10-01T05:49:42.824Z,99897.77
2022-10-01T05:53:50.532Z,99901.14
2022-10-01T05:57:54.799Z,99898.60
2022-10-01T06:01:56.939Z,99894.48
2022-10-01T06:05:59.543Z,99892.46
2022-10-01T06:10:01.591Z,99894.23
2022-10-01T06:14:03.694Z,99893.67
2022-10-01T06:18:09.949Z,99899.02
2022-10-01T06:22:11.967Z,99897.83
2022-10-01T06:26:14.015Z,99898.95
2022-10-01T06:30:16.048Z,99894.27
2022-10-01T06:34:18.088Z,99889.81
2022-10-01T06:38:21.891Z,99888.29
2022-10-01T06:42:24.435Z,99887.20
2022-10-01T06:46:28.450Z,99890.94
2022-10-01T06:50:31.838Z,99895.64
2022-10-01T06:54:33.813Z,99903.35
2022-10-01T06:58:36.933Z,99901.98
2022-10-01T07:02:39.521Z,99900.52
2022-10-01T07:06:41.903Z,99899.09
2022-10-01T07:10:45.604Z,99901.23
2022-10-01T07:14:47.662Z,99898.06
2022-10-01T07:18:49.672Z,99893.62
2022-10-01T07:22:58.135Z,99891.27
2022-10-01T07:27:03.785Z,99887.95
2022-10-01T07:31:10.970Z,99891.70
2022-10-01T07:35:14.527Z,99893.25
2022-10-01T07:39:16.773Z,99895.27
2022-10-01T07:43:18.834Z,99895.63
2022-10-01T07:47:21.852Z,99891.52
2022-10-01T07:51:26.317Z,99891.71
2022-10-01T07:55:30.268Z,99886.50
2022-10-01T07:59:32.882Z,99886.05
2022-10-01T08:03:35.395Z,99883.35
2022-10-01T08:07:37.415Z,99885.22
2022-10-01T08:11:39.393Z,99881.64
2022-10-01T08:15:49.999Z,99879.41
2022-10-01T08:19:52.141Z,99881.34
2022-10-01T08:23:54.233Z,99887.48
2022-10-01T08:27:56.561Z,99890.34
2022-10-01T08:31:58.590Z,99895.23
2022-10-01T08:36:02.511Z,99895.41
2022-10-01T08:40:05.590Z,99894.78
2022-10-01T08:44:17.792Z,99893.60
2022-10-01T08:48:41.934Z,99890.35
2022-10-01T08:52:53.584Z,99884.34
2022-10-01T08:57:00.663Z,99881.52
2022-10-01T09:01:04.711Z,99880.02
2022-10-01T09:05:18.287Z,99870.23
2022-10-01T09:09:40.538Z,99866.02
2022-10-01T09:14:24.736Z,99868.44
2022-10-01T10:41:48.804Z,99791.73
2022-10-01T10:46:04.173Z,99785.23
2022-10-01T10:50:41.123Z,99777.15
2022-10-01T10:54:51.307Z,99771.67
2022-10-01T10:59:10.225Z,99763.09
2022-10-01T11:03:54.529Z,99749.95
2022-10-01T11:08:19.997Z,99737.25
2022-10-01T11:12:48.352Z,99726.93
2022-10-01T11:17:12.722Z,99722.54
2022-10-01T11:21:27.017Z,99714.40
2022-10-01T11:26:07.613Z,99710.48
2022-10-01T11:30:44.789Z,99703.44
2022-10-01T11:35:36.817Z,99693.06
2022-10-01T11:39:43.827Z,99688.09
2022-10-01T11:44:28.446Z,99675.50
2022-10-01T11:48:57.127Z,99667.04
2022-10-01T11:53:37.687Z,99654.73
2022-10-01T11:57:59.730Z,99664.44
2022-10-01T12:02:11.194Z,99656.27
2022-10-01T12:06:37.637Z,99649.34
2022-10-01T12:10:46.949Z,99647.11
2022-10-01T12:14:56.682Z,99642.13
2022-10-01T12:19:17.144Z,99638.38
2022-10-01T12:23:30.586Z,99631.70
2022-10-01T12:27:55.971Z,99629.88
2022-10-01T12:32:37.364Z,99630.79
2022-10-01T12:37:11.998Z,99632.62
2022-10-01T12:41:24.138Z,99624.60
2022-10-01T12:45:48.474Z,99626.50
2022-10-01T12:50:36.860Z,99625.42
2022-10-01T12:54:59.978Z,99617.95
2022-10-01T12:59:11.802Z,99615.20
2022-10-01T13:03:43.163Z,99606.17
2022-10-01T13:08:03.997Z,99595.32
2022-10-01T13:12:45.378Z,99588.19
2022-10-01T13:17:18.935Z,99572.20
2022-10-01T13:21:45.889Z,99567.88
2022-10-01T13:26:10.765Z,99558.66
2022-10-01T13:30:53.078Z,99551.20
2022-10-01T13:34:57.115Z,99549.86
2022-10-01T13:38:59.609Z,99544.37
2022-10-01T13:43:23.402Z,99544.50
2022-10-01T13:47:30.560Z,99540.02
2022-10-01T13:51:38.029Z,99537.74
2022-10-01T13:55:46.344Z,99528.49
2022-10-01T13:59:59.822Z,99515.87
2022-10-01T14:04:40.104Z,99511.20
2022-10-01T14:09:10.848Z,99506.44
2022-10-01T14:13:33.392Z,99498.00
2022-10-01T14:17:41.502Z,99494.30
2022-10-01T14:22:07.655Z,99495.59
2022-10-01T14:26:37.553Z,99489.38
2022-10-01T14:30:42.094Z,99482.55
2022-10-01T14:35:01.052Z,99473.09
2022-10-01T14:39:21.576Z,99474.70
2022-10-01T14:43:28.147Z,99472.28
2022-10-01T14:47:39.360Z,99461.95
2022-10-01T14:51:57.822Z,99459.67
2022-10-01T14:56:05.347Z,99454.77
2022-10-01T15:00:19.633Z,99451.73
2022-10-01T15:04:22.089Z,99447.54
2022-10-01T15:08:40.989Z,99440.81
2022-10-01T15:12:55.519Z,99439.85
2022-10-01T15:17:19.219Z,99434.94
2022-10-01T15:21:48.324Z,99424.91
2022-10-01T15:25:56.057Z,99424.26
2022-10-01T15:30:00.115Z,99418.17
2022-10-01T15:34:14.899Z,99417.08
2022-10-01T15:38:17.791Z,99407.52
2022-10-01T15:42:26.202Z,99403.36
2022-10-01T15:46:30.766Z,99406.55
2022-10-01T15:50:36.986Z,99397.89
2022-10-01T15:54:41.406Z,99393.45
2022-10-01T15:58:55.099Z,99385.58
2022-10-01T16:02:58.398Z,99377.23
2022-10-01T16:07:00.760Z,99366.09
2022-10-01T16:11:16.514Z,99365.69
2022-10-01T16:15:30.944Z,99360.98
2022-10-01T16:19:33.906Z,99355.16
2022-10-01T16:23:41.922Z,99350.66
2022-10-01T16:27:50.110Z,99348.71
2022-10-01T16:31:53.199Z,99342.67
2022-10-01T16:36:10.019Z,99338.33
2022-10-01T16:40:16.257Z,99341.38
2022-10-01T16:44:19.524Z,99331.34
2022-10-01T16:48:24.838Z,99322.55
2022-10-01T16:52:26.890Z,99317.70
2022-10-01T16:56:29.255Z,99312.64
2022-10-01T17:00:31.929Z,99312.48
2022-10-01T17:04:36.211Z,99311.27
2022-10-01T17:08:38.206Z,99308.89
2022-10-01T17:12:41.668Z,99302.72
2022-10-01T17:16:46.906Z,99300.73
2022-10-01T17:20:54.185Z,99299.23
2022-10-01T17:24:56.232Z,99295.82
2022-10-01T17:28:58.183Z,99286.42
2022-10-01T17:33:01.509Z,99276.89
2022-10-01T17:37:03.543Z,99269.67
2022-10-01T17:41:08.633Z,99265.52
2022-10-01T17:45:16.540Z,99257.89
2022-10-01T17:49:18.928Z,99257.09
2022-10-01T17:53:21.271Z,99254.58
2022-10-01T17:57:27.066Z,99249.90
2022-10-01T18:01:29.804Z,99243.48
2022-10-01T18:05:32.370Z,99240.53
2022-10-01T18:09:37.084Z,99231.89
2022-10-01T18:13:39.721Z,99230.89
2022-10-01T18:17:47.952Z,99229.91
2022-10-01T18:21:53.307Z,99226.39
2022-10-01T18:25:57.787Z,99227.83
2022-10-01T18:30:00.486Z,99231.67
2022-10-01T18:34:09.716Z,99229.09
2022-10-01T18:38:25.569Z,99231.44
2022-10-01T18:42:33.363Z,99231.81
2022-10-01T18:46:48.316Z,99230.65
2022-10-01T18:50:50.319Z,99233.99
2022-10-01T18:54:58.681Z,99229.48
2022-10-01T18:59:35.909Z,99226.98
2022-10-01T19:04:02.804Z,99225.48
2022-10-01T19:08:50.017Z,99216.66
2022-10-01T19:13:16.230Z,99214.52
2022-10-01T19:17:27.366Z,99209.04
2022-10-01T19:22:09.931Z,99208.71
2022-10-01T19:26:40.995Z,99215.02
2022-10-01T19:31:21.052Z,99207.93
2022-10-01T19:35:46.082Z,99203.26
2022-10-01T19:40:01.981Z,99203.89
2022-10-01T19:44:31.583Z,99204.86
2022-10-01T19:49:07.478Z,99207.20
2022-10-01T19:54:14.918Z,99199.87
2022-10-01T19:58:21.148Z,99198.19
2022-10-01T20:02:55.518Z,99197.23
2022-10-01T20:07:10.142Z,99195.93
2022-10-01T20:11:27.056Z,99203.70
2022-10-01T20:15:49.440Z,99202.69
2022-10-01T20:26:18.260Z,99200.21
2022-10-01T20:36:18.142Z,99185.23
2022-10-01T20:46:20.216Z,99191.11
2022-10-01T20:56:31.633Z,99177.06
2022-10-01T21:00:58.417Z,99185.84
2022-10-01T21:05:24.235Z,99190.70
2022-10-01T21:09:50.547Z,99185.66
2022-10-01T21:14:19.625Z,99185.49
2022-10-01T21:18:48.058Z,99175.92
2022-10-01T21:23:38.463Z,99173.30
2022-10-01T21:27:46.895Z,99174.70
2022-10-01T21:32:39.374Z,99172.70
2022-10-01T21:36:58.059Z,99166.95
2022-10-01T21:48:30.580Z,99171.52
2022-10-01T21:53:16.119Z,99168.25
2022-10-01T22:03:46.153Z,99170.58
2022-10-01T22:09:11.389Z,99183.17
2022-10-01T22:23:50.778Z,99201.64
2022-10-01T22:28:38.475Z,99205.77
2022-10-01T22:32:56.079Z,99206.31
2022-10-01T22:37:43.296Z,99202.73
2022-10-01T22:42:15.242Z,99206.98
2022-10-01T22:47:19.546Z,99211.16
2022-10-01T22:51:56.814Z,99209.80
2022-10-01T22:56:03.021Z,99211.54
2022-10-01T23:00:22.398Z,99214.88
2022-10-01T23:04:49.227Z,99218.53
2022-10-01T23:09:04.547Z,99225.27
2022-10-01T23:13:57.336Z,99222.63
2022-10-01T23:18:41.682Z,99226.77
2022-10-01T23:22:56.575Z,99227.98
2022-10-01T23:28:36.017Z,99232.98
2022-10-01T23:33:25.777Z,99232.70
2022-10-01T23:37:43.449Z,99235.08
2022-10-01T23:42:32.811Z,99237.69
2022-10-01T23:46:52.978Z,99243.93
2022-10-01T23:51:46.118Z,99251.84
2022-10-01T23:56:50.323Z,99257.42
